sensor_id;sensor_type;location;lat;lon;timestamp;P1;durP1;ratioP1;P2;durP2;ratioP2
4569;SDS011;2297;51.442;6.996;2023-04-07T00:01:55;17.77;;;11.57;;
4569;SDS011;2297;51.442;6.996;2023-04-07T00:04:23;17.73;;;11.05;;
4569;SDS011;2297;51.442;6.996;2023-04-07T00:06:49;17.80;;;11.57;;
4569;SDS011;2297;51.442;6.996;2023-04-07T00:09:16;18.25;;;11.38;;
4569;SDS011;2297;51.442;6.996;2023-04-07T00:11:43;19.33;;;11.80;;
4569;SDS011;2297;51.442;6.996;2023-04-07T00:14:09;16.90;;;11.80;;
4569;SDS011;2297;51.442;6.996;2023-04-07T00:16:36;19.60;;;12.57;;
4569;SDS011;2297;51.442;6.996;2023-04-07T00:19:02;21.48;;;13.23;;
4569;SDS011;2297;51.442;6.996;2023-04-07T00:21:30;17.42;;;12.63;;
4569;SDS011;2297;51.442;6.996;2023-04-07T00:23:57;18.95;;;12.85;;
4569;SDS011;2297;51.442;6.996;2023-04-07T00:26:24;18.02;;;12.13;;
4569;SDS011;2297;51.442;6.996;2023-04-07T00:28:53;16.65;;;11.85;;
4569;SDS011;2297;51.442;6.996;2023-04-07T00:31:19;19.35;;;12.65;;
4569;SDS011;2297;51.442;6.996;2023-04-07T00:33:46;18.38;;;12.40;;
4569;SDS011;2297;51.442;6.996;2023-04-07T00:36:13;18.77;;;12.38;;
4569;SDS011;2297;51.442;6.996;2023-04-07T00:38:41;18.65;;;12.82;;
4569;SDS011;2297;51.442;6.996;2023-04-07T00:41:08;22.33;;;12.80;;
4569;SDS011;2297;51.442;6.996;2023-04-07T00:43:34;21.00;;;13.52;;
4569;SDS011;2297;51.442;6.996;2023-04-07T00:46:07;31.05;;;17.67;;
4569;SDS011;2297;51.442;6.996;2023-04-07T00:48:33;35.17;;;19.75;;
4569;SDS011;2297;51.442;6.996;2023-04-07T00:51:02;22.23;;;13.90;;
4569;SDS011;2297;51.442;6.996;2023-04-07T00:53:29;20.60;;;13.02;;
4569;SDS011;2297;51.442;6.996;2023-04-07T00:55:57;19.85;;;12.82;;
4569;SDS011;2297;51.442;6.996;2023-04-07T00:58:23;19.40;;;12.90;;
4569;SDS011;2297;51.442;6.996;2023-04-07T01:00:50;21.15;;;13.15;;
4569;SDS011;2297;51.442;6.996;2023-04-07T01:03:24;18.37;;;12.83;;
4569;SDS011;2297;51.442;6.996;2023-04-07T01:05:57;20.50;;;12.93;;
4569;SDS011;2297;51.442;6.996;2023-04-07T01:08:28;23.25;;;13.90;;
4569;SDS011;2297;51.442;6.996;2023-04-07T01:11:02;20.27;;;12.73;;
4569;SDS011;2297;51.442;6.996;2023-04-07T01:13:35;22.98;;;14.15;;
4569;SDS011;2297;51.442;6.996;2023-04-07T01:16:07;21.95;;;14.50;;
4569;SDS011;2297;51.442;6.996;2023-04-07T01:18:38;21.05;;;13.20;;
4569;SDS011;2297;51.442;6.996;2023-04-07T01:21:06;20.63;;;13.18;;
4569;SDS011;2297;51.442;6.996;2023-04-07T01:23:45;23.10;;;13.85;;
4569;SDS011;2297;51.442;6.996;2023-04-07T01:26:45;24.05;;;14.25;;
4569;SDS011;2297;51.442;6.996;2023-04-07T01:29:31;22.63;;;13.95;;
4569;SDS011;2297;51.442;6.996;2023-04-07T01:32:01;22.42;;;14.35;;
4569;SDS011;2297;51.442;6.996;2023-04-07T01:34:30;25.00;;;14.93;;
4569;SDS011;2297;51.442;6.996;2023-04-07T01:36:58;23.58;;;14.70;;
4569;SDS011;2297;51.442;6.996;2023-04-07T01:39:27;23.75;;;15.23;;
4569;SDS011;2297;51.442;6.996;2023-04-07T01:41:54;22.20;;;15.10;;
4569;SDS011;2297;51.442;6.996;2023-04-07T01:44:22;26.92;;;15.23;;
4569;SDS011;2297;51.442;6.996;2023-04-07T01:46:52;26.15;;;15.50;;
4569;SDS011;2297;51.442;6.996;2023-04-07T01:49:19;25.35;;;14.70;;
4569;SDS011;2297;51.442;6.996;2023-04-07T01:51:47;24.45;;;15.35;;
4569;SDS011;2297;51.442;6.996;2023-04-07T01:54:15;24.60;;;15.50;;
4569;SDS011;2297;51.442;6.996;2023-04-07T01:56:43;25.73;;;14.80;;
4569;SDS011;2297;51.442;6.996;2023-04-07T01:59:10;23.00;;;14.88;;
4569;SDS011;2297;51.442;6.996;2023-04-07T02:01:36;25.38;;;15.73;;
4569;SDS011;2297;51.442;6.996;2023-04-07T02:04:06;24.52;;;15.60;;
4569;SDS011;2297;51.442;6.996;2023-04-07T02:06:38;23.15;;;14.57;;
4569;SDS011;2297;51.442;6.996;2023-04-07T02:09:09;25.33;;;14.32;;
4569;SDS011;2297;51.442;6.996;2023-04-07T02:11:38;23.88;;;14.75;;
4569;SDS011;2297;51.442;6.996;2023-04-07T02:14:08;22.17;;;14.90;;
4569;SDS011;2297;51.442;6.996;2023-04-07T02:16:35;25.52;;;14.73;;
4569;SDS011;2297;51.442;6.996;2023-04-07T02:19:02;23.83;;;15.70;;
4569;SDS011;2297;51.442;6.996;2023-04-07T02:21:31;24.98;;;15.18;;
4569;SDS011;2297;51.442;6.996;2023-04-07T02:23:59;24.33;;;14.43;;
4569;SDS011;2297;51.442;6.996;2023-04-07T02:26:26;25.73;;;14.90;;
4569;SDS011;2297;51.442;6.996;2023-04-07T02:28:53;26.85;;;16.00;;
4569;SDS011;2297;51.442;6.996;2023-04-07T02:31:19;26.08;;;15.38;;
4569;SDS011;2297;51.442;6.996;2023-04-07T02:33:46;26.70;;;15.80;;
4569;SDS011;2297;51.442;6.996;2023-04-07T02:36:14;27.67;;;16.73;;
4569;SDS011;2297;51.442;6.996;2023-04-07T02:38:40;28.38;;;15.93;;
4569;SDS011;2297;51.442;6.996;2023-04-07T02:41:07;29.48;;;17.02;;
4569;SDS011;2297;51.442;6.996;2023-04-07T02:43:34;30.73;;;17.90;;
4569;SDS011;2297;51.442;6.996;2023-04-07T02:46:00;29.40;;;16.88;;
4569;SDS011;2297;51.442;6.996;2023-04-07T02:48:27;35.25;;;18.45;;
4569;SDS011;2297;51.442;6.996;2023-04-07T02:50:53;36.17;;;19.58;;
4569;SDS011;2297;51.442;6.996;2023-04-07T02:53:21;33.42;;;18.38;;
4569;SDS011;2297;51.442;6.996;2023-04-07T02:55:48;33.92;;;18.67;;
4569;SDS011;2297;51.442;6.996;2023-04-07T02:58:15;34.70;;;18.58;;
4569;SDS011;2297;51.442;6.996;2023-04-07T03:00:42;36.90;;;19.40;;
4569;SDS011;2297;51.442;6.996;2023-04-07T03:03:08;34.10;;;18.38;;
4569;SDS011;2297;51.442;6.996;2023-04-07T03:05:35;38.40;;;19.60;;
4569;SDS011;2297;51.442;6.996;2023-04-07T03:08:11;37.10;;;19.60;;
4569;SDS011;2297;51.442;6.996;2023-04-07T03:10:39;33.83;;;17.75;;
4569;SDS011;2297;51.442;6.996;2023-04-07T03:13:05;38.95;;;18.35;;
4569;SDS011;2297;51.442;6.996;2023-04-07T03:15:32;37.97;;;18.33;;
4569;SDS011;2297;51.442;6.996;2023-04-07T03:17:59;39.33;;;18.23;;
4569;SDS011;2297;51.442;6.996;2023-04-07T03:20:26;34.15;;;17.40;;
4569;SDS011;2297;51.442;6.996;2023-04-07T03:22:52;36.08;;;17.23;;
4569;SDS011;2297;51.442;6.996;2023-04-07T03:25:19;35.25;;;17.25;;
4569;SDS011;2297;51.442;6.996;2023-04-07T03:27:47;31.98;;;16.17;;
4569;SDS011;2297;51.442;6.996;2023-04-07T03:30:14;35.53;;;16.95;;
4569;SDS011;2297;51.442;6.996;2023-04-07T03:32:41;33.30;;;16.52;;
4569;SDS011;2297;51.442;6.996;2023-04-07T03:35:07;33.15;;;16.08;;
4569;SDS011;2297;51.442;6.996;2023-04-07T03:37:35;29.65;;;15.00;;
4569;SDS011;2297;51.442;6.996;2023-04-07T03:40:01;30.00;;;15.52;;
4569;SDS011;2297;51.442;6.996;2023-04-07T03:42:28;28.42;;;14.55;;
4569;SDS011;2297;51.442;6.996;2023-04-07T03:44:56;29.98;;;15.40;;
4569;SDS011;2297;51.442;6.996;2023-04-07T03:47:22;31.08;;;14.65;;
4569;SDS011;2297;51.442;6.996;2023-04-07T03:49:49;27.98;;;14.18;;
4569;SDS011;2297;51.442;6.996;2023-04-07T03:52:16;30.80;;;14.52;;
4569;SDS011;2297;51.442;6.996;2023-04-07T03:54:42;28.05;;;13.75;;
4569;SDS011;2297;51.442;6.996;2023-04-07T03:57:09;30.70;;;14.13;;
4569;SDS011;2297;51.442;6.996;2023-04-07T04:08:42;25.85;;;12.90;;
4569;SDS011;2297;51.442;6.996;2023-04-07T04:11:08;27.77;;;13.32;;
4569;SDS011;2297;51.442;6.996;2023-04-07T04:13:35;23.38;;;12.52;;
4569;SDS011;2297;51.442;6.996;2023-04-07T04:16:02;27.33;;;13.95;;
4569;SDS011;2297;51.442;6.996;2023-04-07T04:18:29;24.42;;;12.75;;
4569;SDS011;2297;51.442;6.996;2023-04-07T04:20:55;27.75;;;13.50;;
4569;SDS011;2297;51.442;6.996;2023-04-07T04:23:23;24.08;;;12.15;;
4569;SDS011;2297;51.442;6.996;2023-04-07T04:25:50;24.17;;;11.95;;
4569;SDS011;2297;51.442;6.996;2023-04-07T04:28:17;23.90;;;11.93;;
4569;SDS011;2297;51.442;6.996;2023-04-07T04:30:43;25.35;;;12.90;;
4569;SDS011;2297;51.442;6.996;2023-04-07T04:33:10;24.00;;;12.32;;
4569;SDS011;2297;51.442;6.996;2023-04-07T04:35:36;24.92;;;12.52;;
4569;SDS011;2297;51.442;6.996;2023-04-07T04:38:03;23.95;;;11.93;;
4569;SDS011;2297;51.442;6.996;2023-04-07T04:40:31;23.27;;;12.32;;
4569;SDS011;2297;51.442;6.996;2023-04-07T04:42:58;27.40;;;12.93;;
4569;SDS011;2297;51.442;6.996;2023-04-07T04:45:24;24.60;;;12.35;;
4569;SDS011;2297;51.442;6.996;2023-04-07T04:47:51;26.42;;;12.98;;
4569;SDS011;2297;51.442;6.996;2023-04-07T04:50:18;23.88;;;11.73;;
4569;SDS011;2297;51.442;6.996;2023-04-07T04:52:44;22.92;;;12.68;;
4569;SDS011;2297;51.442;6.996;2023-04-07T04:55:11;21.98;;;11.77;;
4569;SDS011;2297;51.442;6.996;2023-04-07T04:57:39;25.25;;;12.75;;
4569;SDS011;2297;51.442;6.996;2023-04-07T05:00:06;23.25;;;11.48;;
4569;SDS011;2297;51.442;6.996;2023-04-07T05:02:43;21.50;;;11.80;;
4569;SDS011;2297;51.442;6.996;2023-04-07T05:05:10;23.10;;;12.23;;
4569;SDS011;2297;51.442;6.996;2023-04-07T05:07:37;25.25;;;12.75;;
4569;SDS011;2297;51.442;6.996;2023-04-07T05:10:05;28.15;;;13.10;;
4569;SDS011;2297;51.442;6.996;2023-04-07T05:12:32;24.33;;;12.80;;
4569;SDS011;2297;51.442;6.996;2023-04-07T05:15:00;24.17;;;12.27;;
4569;SDS011;2297;51.442;6.996;2023-04-07T05:17:27;22.15;;;11.45;;
4569;SDS011;2297;51.442;6.996;2023-04-07T05:19:53;19.13;;;10.60;;
4569;SDS011;2297;51.442;6.996;2023-04-07T05:22:20;23.77;;;11.73;;
4569;SDS011;2297;51.442;6.996;2023-04-07T05:24:47;19.73;;;10.80;;
4569;SDS011;2297;51.442;6.996;2023-04-07T05:27:13;21.10;;;10.93;;
4569;SDS011;2297;51.442;6.996;2023-04-07T05:29:40;23.70;;;11.57;;
4569;SDS011;2297;51.442;6.996;2023-04-07T05:32:08;21.88;;;11.20;;
4569;SDS011;2297;51.442;6.996;2023-04-07T05:34:34;21.02;;;11.13;;
4569;SDS011;2297;51.442;6.996;2023-04-07T05:37:01;22.77;;;11.23;;
4569;SDS011;2297;51.442;6.996;2023-04-07T05:39:28;20.70;;;9.85;;
4569;SDS011;2297;51.442;6.996;2023-04-07T05:41:54;19.63;;;9.48;;
4569;SDS011;2297;51.442;6.996;2023-04-07T05:44:22;16.88;;;8.88;;
4569;SDS011;2297;51.442;6.996;2023-04-07T05:46:48;17.08;;;8.50;;
4569;SDS011;2297;51.442;6.996;2023-04-07T05:49:16;17.38;;;9.02;;
4569;SDS011;2297;51.442;6.996;2023-04-07T05:51:43;16.63;;;8.52;;
4569;SDS011;2297;51.442;6.996;2023-04-07T05:54:10;15.27;;;8.13;;
4569;SDS011;2297;51.442;6.996;2023-04-07T05:56:37;16.80;;;8.85;;
4569;SDS011;2297;51.442;6.996;2023-04-07T05:59:03;15.73;;;8.43;;
4569;SDS011;2297;51.442;6.996;2023-04-07T06:01:30;16.67;;;8.23;;
4569;SDS011;2297;51.442;6.996;2023-04-07T06:03:56;15.77;;;8.30;;
4569;SDS011;2297;51.442;6.996;2023-04-07T06:06:25;16.15;;;7.97;;
4569;SDS011;2297;51.442;6.996;2023-04-07T06:08:52;16.05;;;8.32;;
4569;SDS011;2297;51.442;6.996;2023-04-07T06:11:19;17.60;;;8.15;;
4569;SDS011;2297;51.442;6.996;2023-04-07T06:13:46;16.23;;;7.88;;
4569;SDS011;2297;51.442;6.996;2023-04-07T06:16:12;15.63;;;7.45;;
4569;SDS011;2297;51.442;6.996;2023-04-07T06:18:39;15.60;;;8.55;;
4569;SDS011;2297;51.442;6.996;2023-04-07T06:21:06;14.63;;;8.07;;
4569;SDS011;2297;51.442;6.996;2023-04-07T06:23:34;25.67;;;13.73;;
4569;SDS011;2297;51.442;6.996;2023-04-07T06:26:01;19.40;;;10.00;;
4569;SDS011;2297;51.442;6.996;2023-04-07T06:28:27;14.57;;;6.97;;
4569;SDS011;2297;51.442;6.996;2023-04-07T06:31:00;14.05;;;8.00;;
4569;SDS011;2297;51.442;6.996;2023-04-07T06:33:27;19.95;;;8.07;;
4569;SDS011;2297;51.442;6.996;2023-04-07T06:35:53;14.45;;;7.47;;
4569;SDS011;2297;51.442;6.996;2023-04-07T06:38:20;16.02;;;8.38;;
4569;SDS011;2297;51.442;6.996;2023-04-07T06:40:48;13.20;;;6.97;;
4569;SDS011;2297;51.442;6.996;2023-04-07T06:43:15;12.07;;;6.45;;
4569;SDS011;2297;51.442;6.996;2023-04-07T06:45:42;15.60;;;6.70;;
4569;SDS011;2297;51.442;6.996;2023-04-07T06:50:57;14.48;;;7.40;;
4569;SDS011;2297;51.442;6.996;2023-04-07T06:53:24;11.85;;;6.53;;
4569;SDS011;2297;51.442;6.996;2023-04-07T06:56:01;13.52;;;6.53;;
4569;SDS011;2297;51.442;6.996;2023-04-07T06:58:28;12.43;;;6.28;;
4569;SDS011;2297;51.442;6.996;2023-04-07T07:00:54;13.07;;;6.75;;
4569;SDS011;2297;51.442;6.996;2023-04-07T07:03:21;15.80;;;7.15;;
4569;SDS011;2297;51.442;6.996;2023-04-07T07:05:47;14.18;;;7.22;;
4569;SDS011;2297;51.442;6.996;2023-04-07T07:08:14;11.43;;;6.45;;
4569;SDS011;2297;51.442;6.996;2023-04-07T07:10:41;15.30;;;6.57;;
4569;SDS011;2297;51.442;6.996;2023-04-07T07:13:09;12.25;;;7.07;;
4569;SDS011;2297;51.442;6.996;2023-04-07T07:15:35;10.75;;;6.47;;
4569;SDS011;2297;51.442;6.996;2023-04-07T07:18:02;16.23;;;7.43;;
4569;SDS011;2297;51.442;6.996;2023-04-07T07:20:28;12.93;;;6.78;;
4569;SDS011;2297;51.442;6.996;2023-04-07T07:22:55;12.05;;;6.35;;
4569;SDS011;2297;51.442;6.996;2023-04-07T07:25:22;13.82;;;6.85;;
4569;SDS011;2297;51.442;6.996;2023-04-07T07:27:50;11.90;;;6.78;;
4569;SDS011;2297;51.442;6.996;2023-04-07T07:30:19;13.73;;;7.25;;
4569;SDS011;2297;51.442;6.996;2023-04-07T07:32:45;13.60;;;6.32;;
4569;SDS011;2297;51.442;6.996;2023-04-07T07:35:12;15.18;;;6.75;;
4569;SDS011;2297;51.442;6.996;2023-04-07T07:37:39;14.27;;;7.00;;
4569;SDS011;2297;51.442;6.996;2023-04-07T07:40:07;17.88;;;7.88;;
4569;SDS011;2297;51.442;6.996;2023-04-07T07:42:35;16.75;;;7.60;;
4569;SDS011;2297;51.442;6.996;2023-04-07T07:45:01;15.35;;;7.57;;
4569;SDS011;2297;51.442;6.996;2023-04-07T07:47:30;16.50;;;8.80;;
4569;SDS011;2297;51.442;6.996;2023-04-07T07:49:56;17.13;;;8.10;;
4569;SDS011;2297;51.442;6.996;2023-04-07T07:52:23;20.40;;;9.57;;
4569;SDS011;2297;51.442;6.996;2023-04-07T07:54:50;20.45;;;10.93;;
4569;SDS011;2297;51.442;6.996;2023-04-07T07:57:17;25.42;;;11.98;;
4569;SDS011;2297;51.442;6.996;2023-04-07T07:59:43;20.90;;;11.07;;
4569;SDS011;2297;51.442;6.996;2023-04-07T08:02:10;24.65;;;12.00;;
4569;SDS011;2297;51.442;6.996;2023-04-07T08:04:39;24.52;;;12.07;;
4569;SDS011;2297;51.442;6.996;2023-04-07T08:07:05;29.13;;;13.27;;
4569;SDS011;2297;51.442;6.996;2023-04-07T08:09:32;23.20;;;11.88;;
4569;SDS011;2297;51.442;6.996;2023-04-07T08:11:58;23.15;;;11.48;;
4569;SDS011;2297;51.442;6.996;2023-04-07T08:14:25;19.95;;;10.35;;
4569;SDS011;2297;51.442;6.996;2023-04-07T08:16:52;19.48;;;8.82;;
4569;SDS011;2297;51.442;6.996;2023-04-07T08:19:18;21.60;;;9.00;;
4569;SDS011;2297;51.442;6.996;2023-04-07T08:21:46;18.83;;;8.73;;
4569;SDS011;2297;51.442;6.996;2023-04-07T08:24:13;17.00;;;8.32;;
4569;SDS011;2297;51.442;6.996;2023-04-07T08:26:40;16.33;;;7.97;;
4569;SDS011;2297;51.442;6.996;2023-04-07T08:29:06;16.73;;;7.90;;
4569;SDS011;2297;51.442;6.996;2023-04-07T08:31:33;15.48;;;7.18;;
4569;SDS011;2297;51.442;6.996;2023-04-07T08:34:00;17.90;;;7.85;;
4569;SDS011;2297;51.442;6.996;2023-04-07T08:36:26;14.95;;;7.38;;
4569;SDS011;2297;51.442;6.996;2023-04-07T08:38:55;16.00;;;7.45;;
4569;SDS011;2297;51.442;6.996;2023-04-07T08:41:23;15.68;;;7.07;;
4569;SDS011;2297;51.442;6.996;2023-04-07T08:43:54;13.85;;;7.90;;
4569;SDS011;2297;51.442;6.996;2023-04-07T08:46:23;17.38;;;7.43;;
4569;SDS011;2297;51.442;6.996;2023-04-07T08:48:51;15.27;;;8.30;;
4569;SDS011;2297;51.442;6.996;2023-04-07T08:51:20;17.25;;;7.53;;
4569;SDS011;2297;51.442;6.996;2023-04-07T08:53:59;14.82;;;7.45;;
4569;SDS011;2297;51.442;6.996;2023-04-07T08:56:31;15.43;;;8.13;;
4569;SDS011;2297;51.442;6.996;2023-04-07T08:58:58;15.13;;;7.50;;
4569;SDS011;2297;51.442;6.996;2023-04-07T09:01:26;15.90;;;7.60;;
4569;SDS011;2297;51.442;6.996;2023-04-07T09:03:55;15.63;;;8.23;;
4569;SDS011;2297;51.442;6.996;2023-04-07T09:06:22;17.25;;;7.15;;
4569;SDS011;2297;51.442;6.996;2023-04-07T09:08:49;15.82;;;7.97;;
4569;SDS011;2297;51.442;6.996;2023-04-07T09:11:17;14.65;;;7.90;;
4569;SDS011;2297;51.442;6.996;2023-04-07T09:13:44;15.32;;;8.60;;
4569;SDS011;2297;51.442;6.996;2023-04-07T09:16:10;18.40;;;9.68;;
4569;SDS011;2297;51.442;6.996;2023-04-07T09:18:38;22.33;;;9.52;;
4569;SDS011;2297;51.442;6.996;2023-04-07T09:21:06;21.80;;;10.48;;
4569;SDS011;2297;51.442;6.996;2023-04-07T09:23:35;18.83;;;8.63;;
4569;SDS011;2297;51.442;6.996;2023-04-07T09:26:18;17.17;;;8.18;;
4569;SDS011;2297;51.442;6.996;2023-04-07T09:28:50;18.65;;;8.55;;
4569;SDS011;2297;51.442;6.996;2023-04-07T09:31:20;16.40;;;8.27;;
4569;SDS011;2297;51.442;6.996;2023-04-07T09:33:47;17.55;;;8.77;;
4569;SDS011;2297;51.442;6.996;2023-04-07T09:39:15;16.88;;;8.55;;
4569;SDS011;2297;51.442;6.996;2023-04-07T09:41:43;14.50;;;7.55;;
4569;SDS011;2297;51.442;6.996;2023-04-07T09:44:10;16.83;;;7.80;;
4569;SDS011;2297;51.442;6.996;2023-04-07T09:46:46;21.17;;;7.80;;
4569;SDS011;2297;51.442;6.996;2023-04-07T09:49:13;18.25;;;8.05;;
4569;SDS011;2297;51.442;6.996;2023-04-07T09:51:49;13.27;;;6.80;;
4569;SDS011;2297;51.442;6.996;2023-04-07T09:54:23;13.13;;;7.13;;
4569;SDS011;2297;51.442;6.996;2023-04-07T09:56:59;14.00;;;6.97;;
4569;SDS011;2297;51.442;6.996;2023-04-07T09:59:27;12.07;;;6.82;;
4569;SDS011;2297;51.442;6.996;2023-04-07T10:01:54;11.27;;;5.93;;
4569;SDS011;2297;51.442;6.996;2023-04-07T10:04:21;11.95;;;6.60;;
4569;SDS011;2297;51.442;6.996;2023-04-07T10:06:49;12.20;;;6.85;;
4569;SDS011;2297;51.442;6.996;2023-04-07T10:09:15;12.55;;;6.72;;
4569;SDS011;2297;51.442;6.996;2023-04-07T10:11:42;11.60;;;7.05;;
4569;SDS011;2297;51.442;6.996;2023-04-07T10:14:11;14.10;;;7.38;;
4569;SDS011;2297;51.442;6.996;2023-04-07T10:16:38;17.15;;;8.18;;
4569;SDS011;2297;51.442;6.996;2023-04-07T10:19:07;16.52;;;8.18;;
4569;SDS011;2297;51.442;6.996;2023-04-07T10:21:35;15.65;;;8.00;;
4569;SDS011;2297;51.442;6.996;2023-04-07T10:24:08;16.48;;;8.20;;
4569;SDS011;2297;51.442;6.996;2023-04-07T10:26:46;16.80;;;7.93;;
4569;SDS011;2297;51.442;6.996;2023-04-07T10:29:19;15.02;;;7.85;;
4569;SDS011;2297;51.442;6.996;2023-04-07T10:31:47;15.07;;;8.27;;
4569;SDS011;2297;51.442;6.996;2023-04-07T10:34:14;15.30;;;7.75;;
4569;SDS011;2297;51.442;6.996;2023-04-07T10:39:37;16.08;;;8.27;;
4569;SDS011;2297;51.442;6.996;2023-04-07T10:42:04;15.63;;;8.18;;
4569;SDS011;2297;51.442;6.996;2023-04-07T10:47:24;17.83;;;8.68;;
4569;SDS011;2297;51.442;6.996;2023-04-07T10:52:41;17.90;;;8.27;;
4569;SDS011;2297;51.442;6.996;2023-04-07T10:55:28;20.27;;;8.25;;
4569;SDS011;2297;51.442;6.996;2023-04-07T10:58:13;14.63;;;7.75;;
4569;SDS011;2297;51.442;6.996;2023-04-07T11:00:43;15.38;;;7.93;;
4569;SDS011;2297;51.442;6.996;2023-04-07T11:03:51;16.05;;;8.13;;
4569;SDS011;2297;51.442;6.996;2023-04-07T11:06:20;16.48;;;7.30;;
4569;SDS011;2297;51.442;6.996;2023-04-07T11:08:47;17.73;;;8.45;;
4569;SDS011;2297;51.442;6.996;2023-04-07T11:11:15;17.05;;;7.75;;
4569;SDS011;2297;51.442;6.996;2023-04-07T11:13:43;16.45;;;7.90;;
4569;SDS011;2297;51.442;6.996;2023-04-07T11:16:12;18.30;;;8.77;;
4569;SDS011;2297;51.442;6.996;2023-04-07T11:18:39;17.98;;;8.30;;
4569;SDS011;2297;51.442;6.996;2023-04-07T11:21:07;17.23;;;8.63;;
4569;SDS011;2297;51.442;6.996;2023-04-07T11:23:37;17.58;;;8.45;;
4569;SDS011;2297;51.442;6.996;2023-04-07T11:26:05;12.30;;;6.82;;
4569;SDS011;2297;51.442;6.996;2023-04-07T11:28:32;12.50;;;6.97;;
4569;SDS011;2297;51.442;6.996;2023-04-07T11:30:59;15.93;;;7.88;;
4569;SDS011;2297;51.442;6.996;2023-04-07T11:33:28;15.85;;;8.20;;
4569;SDS011;2297;51.442;6.996;2023-04-07T11:35:56;13.52;;;7.43;;
4569;SDS011;2297;51.442;6.996;2023-04-07T11:38:24;14.73;;;7.35;;
4569;SDS011;2297;51.442;6.996;2023-04-07T11:43:46;16.80;;;7.63;;
4569;SDS011;2297;51.442;6.996;2023-04-07T11:46:13;14.57;;;8.18;;
4569;SDS011;2297;51.442;6.996;2023-04-07T11:48:42;14.63;;;7.45;;
4569;SDS011;2297;51.442;6.996;2023-04-07T11:51:14;15.93;;;7.97;;
4569;SDS011;2297;51.442;6.996;2023-04-07T11:53:41;13.68;;;7.47;;
4569;SDS011;2297;51.442;6.996;2023-04-07T11:56:08;16.02;;;7.90;;
4569;SDS011;2297;51.442;6.996;2023-04-07T11:58:45;15.57;;;8.20;;
4569;SDS011;2297;51.442;6.996;2023-04-07T12:01:12;12.18;;;6.15;;
4569;SDS011;2297;51.442;6.996;2023-04-07T12:03:53;15.65;;;7.47;;
4569;SDS011;2297;51.442;6.996;2023-04-07T12:06:27;31.15;;;11.15;;
4569;SDS011;2297;51.442;6.996;2023-04-07T12:08:58;14.20;;;7.30;;
4569;SDS011;2297;51.442;6.996;2023-04-07T12:11:26;10.85;;;6.38;;
4569;SDS011;2297;51.442;6.996;2023-04-07T12:13:53;12.57;;;6.55;;
4569;SDS011;2297;51.442;6.996;2023-04-07T12:16:20;14.15;;;6.55;;
4569;SDS011;2297;51.442;6.996;2023-04-07T12:18:47;16.10;;;6.40;;
4569;SDS011;2297;51.442;6.996;2023-04-07T12:21:16;13.13;;;6.53;;
4569;SDS011;2297;51.442;6.996;2023-04-07T12:23:43;9.93;;;5.57;;
4569;SDS011;2297;51.442;6.996;2023-04-07T12:26:11;13.80;;;7.15;;
4569;SDS011;2297;51.442;6.996;2023-04-07T12:28:38;12.10;;;5.95;;
4569;SDS011;2297;51.442;6.996;2023-04-07T12:31:04;11.48;;;6.20;;
4569;SDS011;2297;51.442;6.996;2023-04-07T12:33:31;10.98;;;6.05;;
4569;SDS011;2297;51.442;6.996;2023-04-07T12:35:58;11.65;;;6.28;;
4569;SDS011;2297;51.442;6.996;2023-04-07T12:38:26;13.07;;;6.45;;
4569;SDS011;2297;51.442;6.996;2023-04-07T12:40:53;9.57;;;5.75;;
4569;SDS011;2297;51.442;6.996;2023-04-07T12:43:19;11.50;;;6.68;;
4569;SDS011;2297;51.442;6.996;2023-04-07T12:45:46;11.48;;;6.20;;
4569;SDS011;2297;51.442;6.996;2023-04-07T12:48:13;17.55;;;7.78;;
4569;SDS011;2297;51.442;6.996;2023-04-07T12:50:40;13.07;;;7.05;;
4569;SDS011;2297;51.442;6.996;2023-04-07T12:53:07;10.88;;;6.78;;
4569;SDS011;2297;51.442;6.996;2023-04-07T12:55:35;12.93;;;7.78;;
4569;SDS011;2297;51.442;6.996;2023-04-07T12:58:01;14.13;;;7.38;;
4569;SDS011;2297;51.442;6.996;2023-04-07T13:00:28;18.75;;;9.35;;
4569;SDS011;2297;51.442;6.996;2023-04-07T13:02:55;16.55;;;9.57;;
4569;SDS011;2297;51.442;6.996;2023-04-07T13:05:22;15.68;;;9.50;;
4569;SDS011;2297;51.442;6.996;2023-04-07T13:07:49;19.98;;;11.10;;
4569;SDS011;2297;51.442;6.996;2023-04-07T13:10:15;20.73;;;10.90;;
4569;SDS011;2297;51.442;6.996;2023-04-07T13:12:43;19.88;;;10.60;;
4569;SDS011;2297;51.442;6.996;2023-04-07T13:15:10;22.27;;;10.75;;
4569;SDS011;2297;51.442;6.996;2023-04-07T13:17:37;18.00;;;9.68;;
4569;SDS011;2297;51.442;6.996;2023-04-07T13:20:04;19.00;;;9.50;;
4569;SDS011;2297;51.442;6.996;2023-04-07T13:22:31;16.10;;;8.57;;
4569;SDS011;2297;51.442;6.996;2023-04-07T13:24:58;19.85;;;9.27;;
4569;SDS011;2297;51.442;6.996;2023-04-07T13:27:30;23.75;;;10.32;;
4569;SDS011;2297;51.442;6.996;2023-04-07T13:29:58;16.55;;;8.63;;
4569;SDS011;2297;51.442;6.996;2023-04-07T13:32:25;14.10;;;7.88;;
4569;SDS011;2297;51.442;6.996;2023-04-07T13:34:51;13.60;;;7.28;;
4569;SDS011;2297;51.442;6.996;2023-04-07T13:37:18;13.05;;;7.60;;
4569;SDS011;2297;51.442;6.996;2023-04-07T13:39:45;15.60;;;7.53;;
4569;SDS011;2297;51.442;6.996;2023-04-07T13:42:12;14.13;;;7.13;;
4569;SDS011;2297;51.442;6.996;2023-04-07T13:44:40;10.90;;;5.63;;
4569;SDS011;2297;51.442;6.996;2023-04-07T13:47:10;7.32;;;5.10;;
4569;SDS011;2297;51.442;6.996;2023-04-07T13:49:39;5.95;;;4.68;;
4569;SDS011;2297;51.442;6.996;2023-04-07T13:52:05;6.90;;;5.05;;
4569;SDS011;2297;51.442;6.996;2023-04-07T13:54:32;6.70;;;4.82;;
4569;SDS011;2297;51.442;6.996;2023-04-07T13:56:58;8.15;;;5.13;;
4569;SDS011;2297;51.442;6.996;2023-04-07T13:59:25;7.07;;;5.45;;
4569;SDS011;2297;51.442;6.996;2023-04-07T14:01:52;9.43;;;5.90;;
4569;SDS011;2297;51.442;6.996;2023-04-07T14:04:20;10.13;;;5.70;;
4569;SDS011;2297;51.442;6.996;2023-04-07T14:06:47;7.97;;;5.32;;
4569;SDS011;2297;51.442;6.996;2023-04-07T14:09:13;7.32;;;5.57;;
4569;SDS011;2297;51.442;6.996;2023-04-07T14:11:40;7.57;;;5.68;;
4569;SDS011;2297;51.442;6.996;2023-04-07T14:14:06;7.65;;;5.45;;
4569;SDS011;2297;51.442;6.996;2023-04-07T14:16:33;7.63;;;5.10;;
4569;SDS011;2297;51.442;6.996;2023-04-07T14:19:00;7.85;;;5.40;;
4569;SDS011;2297;51.442;6.996;2023-04-07T14:21:30;7.45;;;5.28;;
4569;SDS011;2297;51.442;6.996;2023-04-07T14:23:56;7.82;;;5.88;;
4569;SDS011;2297;51.442;6.996;2023-04-07T14:26:23;6.78;;;4.90;;
4569;SDS011;2297;51.442;6.996;2023-04-07T14:28:51;6.30;;;4.60;;
4569;SDS011;2297;51.442;6.996;2023-04-07T14:31:17;7.43;;;5.13;;
4569;SDS011;2297;51.442;6.996;2023-04-07T14:33:44;7.85;;;5.10;;
4569;SDS011;2297;51.442;6.996;2023-04-07T14:36:12;8.07;;;5.00;;
4569;SDS011;2297;51.442;6.996;2023-04-07T14:38:41;6.97;;;5.15;;
4569;SDS011;2297;51.442;6.996;2023-04-07T14:41:08;8.52;;;5.32;;
4569;SDS011;2297;51.442;6.996;2023-04-07T14:43:35;5.85;;;4.30;;
4569;SDS011;2297;51.442;6.996;2023-04-07T14:46:02;6.57;;;5.07;;
4569;SDS011;2297;51.442;6.996;2023-04-07T14:48:35;7.28;;;4.43;;
4569;SDS011;2297;51.442;6.996;2023-04-07T14:51:02;5.82;;;4.20;;
4569;SDS011;2297;51.442;6.996;2023-04-07T14:53:29;5.95;;;4.50;;
4569;SDS011;2297;51.442;6.996;2023-04-07T14:55:57;6.40;;;5.18;;
4569;SDS011;2297;51.442;6.996;2023-04-07T14:58:23;6.47;;;5.28;;
4569;SDS011;2297;51.442;6.996;2023-04-07T15:00:50;9.45;;;5.65;;
4569;SDS011;2297;51.442;6.996;2023-04-07T15:03:16;6.85;;;5.50;;
4569;SDS011;2297;51.442;6.996;2023-04-07T15:05:43;6.78;;;5.78;;
4569;SDS011;2297;51.442;6.996;2023-04-07T15:08:10;7.93;;;5.88;;
4569;SDS011;2297;51.442;6.996;2023-04-07T15:10:36;8.68;;;6.30;;
4569;SDS011;2297;51.442;6.996;2023-04-07T15:13:05;8.73;;;6.30;;
4569;SDS011;2297;51.442;6.996;2023-04-07T15:15:32;8.85;;;6.35;;
4569;SDS011;2297;51.442;6.996;2023-04-07T15:17:59;8.80;;;7.40;;
4569;SDS011;2297;51.442;6.996;2023-04-07T15:20:25;9.85;;;7.28;;
4569;SDS011;2297;51.442;6.996;2023-04-07T15:22:52;11.57;;;8.18;;
4569;SDS011;2297;51.442;6.996;2023-04-07T15:25:18;9.93;;;7.65;;
4569;SDS011;2297;51.442;6.996;2023-04-07T15:27:47;11.50;;;8.05;;
4569;SDS011;2297;51.442;6.996;2023-04-07T15:30:15;16.35;;;9.80;;